createdAt,value
2022-11-18T00:01:14.671Z,58.90
2022-11-18T00:03:41.856Z,59.20
2022-11-18T00:06:12.008Z,59.00
2022-11-18T00:08:38.774Z,58.80
2022-11-18T00:11:10.851Z,58.60
2022-11-18T00:13:56.774Z,58.80
2022-11-18T00:16:23.837Z,58.70
2022-11-18T00:18:51.256Z,58.60
2022-11-18T00:21:17.898Z,58.50
2022-11-18T00:23:44.571Z,58.60
2022-11-18T00:26:15.259Z,58.50
2022-11-18T00:28:42.426Z,58.90
2022-11-18T00:31:11.737Z,58.30
2022-11-18T00:33:39.019Z,58.20
2022-11-18T00:36:08.220Z,58.40
2022-11-18T00:38:34.966Z,58.20
2022-11-18T00:41:15.823Z,58.60
2022-11-18T00:43:42.773Z,58.30
2022-11-18T00:46:11.393Z,58.40
2022-11-18T00:48:38.220Z,58.50
2022-11-18T00:51:16.381Z,61.20
2022-11-18T00:53:43.518Z,58.40
2022-11-18T00:56:10.558Z,58.30
2022-11-18T00:58:37.628Z,57.90
2022-11-18T01:01:05.053Z,57.80
2022-11-18T01:03:31.825Z,57.50
2022-11-18T01:05:58.671Z,57.30
2022-11-18T01:08:25.995Z,57.20
2022-11-18T01:10:53.565Z,57.10
2022-11-18T01:13:23.030Z,57.30
2022-11-18T01:15:57.912Z,57.10
2022-11-18T01:18:27.540Z,57.20
2022-11-18T01:20:54.408Z,57.20
2022-11-18T01:23:22.067Z,57.60
2022-11-18T01:25:49.768Z,57.10
2022-11-18T01:28:23.218Z,57.50
2022-11-18T01:30:50.870Z,57.10
2022-11-18T01:33:17.629Z,57.10
2022-11-18T01:35:44.740Z,56.80
2022-11-18T01:38:13.623Z,56.70
2022-11-18T01:40:41.293Z,56.70
2022-11-18T01:43:17.868Z,56.70
2022-11-18T01:45:48.011Z,56.80
2022-11-18T01:48:26.351Z,56.90
2022-11-18T01:50:58.096Z,57.20
2022-11-18T01:53:53.777Z,57.20
2022-11-18T01:56:28.274Z,58.00
2022-11-18T01:58:59.277Z,57.30
2022-11-18T02:01:26.113Z,57.20
2022-11-18T02:03:54.154Z,57.40
2022-11-18T02:06:22.146Z,57.40
2022-11-18T02:08:49.788Z,57.40
2022-11-18T02:11:35.773Z,57.30
2022-11-18T02:14:05.743Z,57.50
2022-11-18T02:16:57.014Z,57.40
2022-11-18T02:19:47.755Z,57.50
2022-11-18T02:22:37.423Z,57.40
2022-11-18T02:25:14.853Z,57.30
2022-11-18T02:28:06.302Z,57.20
2022-11-18T02:30:41.893Z,57.20
2022-11-18T02:33:12.706Z,57.80
2022-11-18T02:35:52.475Z,57.40
2022-11-18T02:38:31.137Z,57.30
2022-11-18T02:41:06.643Z,57.00
2022-11-18T02:44:05.831Z,57.30
2022-11-18T02:46:35.288Z,57.50
2022-11-18T02:49:06.249Z,57.50
2022-11-18T02:51:35.466Z,57.10
2022-11-18T02:54:08.572Z,57.10
2022-11-18T02:56:36.483Z,56.80
2022-11-18T02:59:04.788Z,57.10
2022-11-18T03:01:34.698Z,57.70
2022-11-18T03:04:02.133Z,57.80
2022-11-18T03:06:32.218Z,57.60
2022-11-18T03:09:26.765Z,57.40
2022-11-18T03:12:17.176Z,57.40
2022-11-18T03:15:15.380Z,57.60
2022-11-18T03:18:07.505Z,57.50
2022-11-18T03:20:42.135Z,57.70
2022-11-18T03:23:20.980Z,57.70
2022-11-18T03:26:05.177Z,57.90
2022-11-18T03:28:37.095Z,58.00
2022-11-18T03:31:29.445Z,57.80
2022-11-18T03:34:06.483Z,57.90
2022-11-18T03:36:37.687Z,58.10
2022-11-18T03:39:07.012Z,58.20
2022-11-18T03:41:39.604Z,58.40
2022-11-18T03:44:12.644Z,58.30
2022-11-18T03:46:47.475Z,58.00
2022-11-18T03:49:21.689Z,58.40
2022-11-18T03:51:56.816Z,58.30
2022-11-18T03:54:28.584Z,58.00
2022-11-18T03:57:07.105Z,58.50
2022-11-18T03:59:38.553Z,58.10
2022-11-18T04:02:26.141Z,59.90
2022-11-18T04:04:55.176Z,58.40
2022-11-18T04:07:42.185Z,58.10
2022-11-18T04:10:19.604Z,58.00
2022-11-18T04:13:01.810Z,57.80
2022-11-18T04:15:32.390Z,57.90
2022-11-18T04:17:59.765Z,57.80
2022-11-18T04:20:27.227Z,57.90
2022-11-18T04:22:53.934Z,57.70
2022-11-18T04:25:20.830Z,58.10
2022-11-18T04:27:47.465Z,57.90
2022-11-18T04:30:15.322Z,57.80
2022-11-18T04:32:42.379Z,58.10
2022-11-18T04:35:09.471Z,57.90
2022-11-18T04:37:36.184Z,57.40
2022-11-18T04:40:04.060Z,57.60
2022-11-18T04:42:31.022Z,57.60
2022-11-18T04:44:57.762Z,57.80
2022-11-18T04:47:24.549Z,57.70
2022-11-18T04:49:52.342Z,57.40
2022-11-18T04:52:19.083Z,57.10
2022-11-18T04:54:46.715Z,57.10
2022-11-18T04:57:14.560Z,57.20
2022-11-18T04:59:41.396Z,57.70
2022-11-18T05:02:08.164Z,57.30
2022-11-18T05:04:35.278Z,57.40
2022-11-18T05:07:03.832Z,57.20
2022-11-18T05:09:32.201Z,57.70
2022-11-18T05:12:17.994Z,59.80
2022-11-18T05:14:49.560Z,59.90
2022-11-18T05:17:18.255Z,58.00
2022-11-18T05:19:44.983Z,57.80
2022-11-18T05:22:11.704Z,57.80
2022-11-18T05:24:38.491Z,57.90
2022-11-18T05:27:05.267Z,58.00
2022-11-18T05:29:33.512Z,58.00
2022-11-18T05:32:00.223Z,57.70
2022-11-18T05:34:26.956Z,58.00
2022-11-18T05:36:53.644Z,57.70
2022-11-18T05:39:20.597Z,58.20
2022-11-18T05:42:06.414Z,58.20
2022-11-18T05:44:33.105Z,58.50
2022-11-18T05:47:00.346Z,58.40
2022-11-18T05:49:27.177Z,58.40
2022-11-18T05:51:53.865Z,58.40
2022-11-18T05:54:21.644Z,58.10
2022-11-18T05:56:48.570Z,58.30
2022-11-18T05:59:16.222Z,58.30
2022-11-18T06:01:45.428Z,58.30
2022-11-18T06:04:38.621Z,58.50
2022-11-18T06:07:17.893Z,58.50
2022-11-18T06:09:49.006Z,58.80
2022-11-18T06:12:18.469Z,58.50
2022-11-18T06:14:56.759Z,58.40
2022-11-18T06:17:30.918Z,57.80
2022-11-18T06:19:58.498Z,57.80
2022-11-18T06:22:26.367Z,57.80
2022-11-18T06:24:53.532Z,57.80
2022-11-18T06:27:20.444Z,57.90
2022-11-18T06:29:47.084Z,58.30
2022-11-18T06:32:13.730Z,58.10
2022-11-18T06:34:41.900Z,57.70
2022-11-18T06:37:20.537Z,57.40
2022-11-18T06:39:47.427Z,57.20
2022-11-18T06:42:37.293Z,57.30
2022-11-18T06:45:05.839Z,57.00
2022-11-18T06:47:32.474Z,56.90
2022-11-18T06:49:59.132Z,59.60
2022-11-18T06:52:25.814Z,57.20
2022-11-18T06:54:52.485Z,56.90
2022-11-18T06:57:19.141Z,56.90
2022-11-18T06:59:45.826Z,56.30
2022-11-18T07:02:12.586Z,55.90
2022-11-18T07:04:42.087Z,55.90
2022-11-18T07:07:08.805Z,56.20
2022-11-18T07:09:36.786Z,56.50
2022-11-18T07:12:04.470Z,56.70
2022-11-18T07:14:31.627Z,56.90
2022-11-18T07:16:58.290Z,57.10
2022-11-18T07:19:25.040Z,57.70
2022-11-18T07:21:51.963Z,57.90
2022-11-18T07:24:18.640Z,58.20
2022-11-18T07:26:45.453Z,58.60
2022-11-18T07:29:12.195Z,58.80
2022-11-18T07:31:39.884Z,59.10
2022-11-18T07:34:07.432Z,59.50
2022-11-18T07:36:35.855Z,59.80
2022-11-18T07:39:05.004Z,60.10
2022-11-18T07:41:32.162Z,60.50
2022-11-18T07:44:01.355Z,60.30
2022-11-18T07:46:29.633Z,60.70
2022-11-18T07:48:58.880Z,61.10
2022-11-18T07:51:28.273Z,61.40
2022-11-18T07:53:55.173Z,61.70
2022-11-18T07:56:22.849Z,61.70
2022-11-18T07:58:56.021Z,61.80
2022-11-18T08:01:25.541Z,61.70
2022-11-18T08:03:52.369Z,61.70
2022-11-18T08:06:19.728Z,61.70
2022-11-18T08:08:47.266Z,61.60
2022-11-18T08:11:21.874Z,61.70
2022-11-18T08:13:50.022Z,61.80
2022-11-18T08:16:19.109Z,61.80
2022-11-18T08:18:46.638Z,62.00
2022-11-18T08:21:14.334Z,61.80
2022-11-18T08:23:42.407Z,61.90
2022-11-18T08:26:14.573Z,62.00
2022-11-18T08:28:43.622Z,62.00
2022-11-18T08:31:19.318Z,62.00
2022-11-18T08:33:46.566Z,62.30
2022-11-18T08:36:17.443Z,62.20
2022-11-18T08:38:44.597Z,62.20
2022-11-18T08:41:14.479Z,62.20
2022-11-18T08:43:42.612Z,62.20
2022-11-18T08:46:09.493Z,62.10
2022-11-18T08:48:36.497Z,62.10
2022-11-18T08:51:04.067Z,62.00
2022-11-18T08:53:30.886Z,62.00
2022-11-18T08:55:58.853Z,62.10
2022-11-18T08:58:26.641Z,62.30
2022-11-18T09:00:53.884Z,62.30
2022-11-18T09:03:20.997Z,62.40
2022-11-18T09:05:47.774Z,62.50
2022-11-18T09:08:15.617Z,62.60
2022-11-18T09:10:42.467Z,62.70
2022-11-18T09:13:33.754Z,62.50
2022-11-18T09:15:59.076Z,62.50
2022-11-18T09:18:25.861Z,62.50
2022-11-18T09:21:00.690Z,62.30
2022-11-18T09:23:27.571Z,62.80
2022-11-18T09:26:15.160Z,62.70
2022-11-18T09:28:42.728Z,62.70
2022-11-18T09:31:14.842Z,62.70
2022-11-18T09:33:42.180Z,63.10
2022-11-18T09:36:20.957Z,63.40
2022-11-18T09:38:51.821Z,63.80
2022-11-18T09:41:45.120Z,64.00
2022-11-18T09:44:20.532Z,64.10
2022-11-18T09:46:56.352Z,64.10
2022-11-18T09:49:39.009Z,63.90
2022-11-18T09:52:21.817Z,64.00
2022-11-18T09:54:48.697Z,63.90
2022-11-18T09:57:23.543Z,63.90
2022-11-18T09:59:51.052Z,64.20
2022-11-18T10:02:37.452Z,64.30
2022-11-18T10:05:29.671Z,64.50
2022-11-18T10:08:32.959Z,64.40
2022-11-18T10:11:07.755Z,64.30
2022-11-18T10:13:58.722Z,64.50
2022-11-18T10:16:47.213Z,64.40
2022-11-18T10:19:13.862Z,64.20
2022-11-18T10:21:58.186Z,64.10
2022-11-18T10:24:28.824Z,64.10
2022-11-18T10:26:58.442Z,64.30
2022-11-18T10:29:26.012Z,64.30
2022-11-18T10:32:11.005Z,64.70
2022-11-18T10:34:48.854Z,65.10
2022-11-18T10:37:34.753Z,65.10
2022-11-18T10:40:25.062Z,65.10
2022-11-18T10:42:51.760Z,65.20
2022-11-18T10:45:27.102Z,65.30
2022-11-18T10:48:16.183Z,65.10
2022-11-18T10:50:54.724Z,65.00
2022-11-18T10:53:37.044Z,65.10
2022-11-18T10:56:07.364Z,65.40
2022-11-18T10:58:42.886Z,65.20
2022-11-18T11:01:28.024Z,65.00
2022-11-18T11:04:13.365Z,65.30
2022-11-18T11:06:40.160Z,65.50
2022-11-18T11:09:22.498Z,65.80
2022-11-18T11:11:57.574Z,65.70
2022-11-18T11:14:33.115Z,65.70
2022-11-18T11:17:11.003Z,65.90
2022-11-18T11:20:14.540Z,66.20
2022-11-18T11:22:42.762Z,65.80
2022-11-18T11:28:34.315Z,65.30
2022-11-18T11:31:28.953Z,65.70
2022-11-18T11:34:04.816Z,65.90
2022-11-18T11:37:04.308Z,65.90
2022-11-18T11:39:59.638Z,66.30
2022-11-18T11:42:58.137Z,66.40
2022-11-18T11:45:32.059Z,66.20
2022-11-18T11:48:40.435Z,66.00
2022-11-18T11:51:22.497Z,66.60
2022-11-18T11:54:07.427Z,66.70
2022-11-18T11:57:05.858Z,65.90
2022-11-18T11:59:51.053Z,65.50
2022-11-18T12:02:44.355Z,65.80
2022-11-18T12:05:17.778Z,65.20
2022-11-18T12:08:24.410Z,65.10
2022-11-18T12:11:35.366Z,64.10
2022-11-18T12:14:13.471Z,64.40
2022-11-18T12:16:54.380Z,63.60
2022-11-18T12:19:23.334Z,63.50
2022-11-18T12:21:49.980Z,63.70
2022-11-18T12:24:38.754Z,63.50
2022-11-18T12:27:32.482Z,63.60
2022-11-18T12:30:01.719Z,63.30
2022-11-18T12:32:35.286Z,63.30
2022-11-18T12:35:11.069Z,63.10
2022-11-18T12:37:59.041Z,62.70
2022-11-18T12:40:38.239Z,63.40
2022-11-18T12:43:43.820Z,63.10
2022-11-18T12:46:35.424Z,63.00
2022-11-18T12:49:24.315Z,63.00
2022-11-18T12:51:56.327Z,63.10
2022-11-18T12:54:27.877Z,62.90
2022-11-18T12:56:57.642Z,62.40
2022-11-18T12:59:29.599Z,62.20
2022-11-18T13:02:11.174Z,61.80
2022-11-18T13:04:45.869Z,61.30
2022-11-18T13:07:32.798Z,61.30
2022-11-18T13:10:00.828Z,61.50
2022-11-18T13:12:31.946Z,61.30
2022-11-18T13:15:20.484Z,61.80
2022-11-18T13:17:54.853Z,61.70
2022-11-18T13:20:36.699Z,62.50
2022-11-18T13:23:45.545Z,61.30
2022-11-18T13:26:26.924Z,61.50
2022-11-18T13:29:13.559Z,61.30
2022-11-18T13:32:15.615Z,61.30
2022-11-18T13:34:51.133Z,61.60
2022-11-18T13:37:21.518Z,61.30
2022-11-18T13:39:49.305Z,60.80
2022-11-18T13:42:20.708Z,60.50
2022-11-18T13:45:12.794Z,60.40
2022-11-18T13:48:05.515Z,59.90
2022-11-18T13:50:35.835Z,60.10
2022-11-18T13:53:13.258Z,59.90
2022-11-18T13:55:50.228Z,60.40
2022-11-18T13:58:19.753Z,60.70
2022-11-18T14:00:59.836Z,61.40
2022-11-18T14:03:30.008Z,61.40
2022-11-18T14:05:58.152Z,61.30
2022-11-18T14:08:36.424Z,60.40
2022-11-18T14:11:04.791Z,59.70
2022-11-18T14:13:53.009Z,60.40
2022-11-18T14:16:20.458Z,60.10
2022-11-18T14:18:49.297Z,60.40
2022-11-18T14:21:31.546Z,59.90
2022-11-18T14:23:59.034Z,60.00
2022-11-18T14:26:34.599Z,60.10
2022-11-18T14:29:21.023Z,60.00
2022-11-18T14:32:10.912Z,60.30
2022-11-18T14:34:37.694Z,60.40
2022-11-18T14:37:12.142Z,60.40
2022-11-18T14:39:39.777Z,60.40
2022-11-18T14:42:10.844Z,60.60
2022-11-18T14:44:39.668Z,60.30
2022-11-18T14:47:19.260Z,60.30
2022-11-18T14:49:46.046Z,60.40
2022-11-18T14:52:12.761Z,60.30
2022-11-18T14:54:39.487Z,60.90
2022-11-18T14:57:06.356Z,60.30
2022-11-18T14:59:33.033Z,60.60
2022-11-18T15:02:00.104Z,60.70
2022-11-18T15:04:26.928Z,60.50
2022-11-18T15:06:53.947Z,60.30
2022-11-18T15:09:20.930Z,60.40
2022-11-18T15:11:47.839Z,60.30
2022-11-18T15:14:14.521Z,60.50
2022-11-18T15:16:41.460Z,60.60
2022-11-18T15:19:14.035Z,60.50
2022-11-18T15:21:40.805Z,60.40
2022-11-18T15:24:07.578Z,61.20
2022-11-18T15:26:43.561Z,60.60
2022-11-18T15:29:19.807Z,60.80
2022-11-18T15:31:47.214Z,60.90
2022-11-18T15:34:14.440Z,60.90
2022-11-18T15:36:41.275Z,61.00
2022-11-18T15:39:09.523Z,61.00
2022-11-18T15:41:38.787Z,61.30
2022-11-18T15:44:05.652Z,61.30
2022-11-18T15:46:33.694Z,61.50
2022-11-18T15:49:01.178Z,61.60
2022-11-18T15:51:29.808Z,61.80
2022-11-18T15:53:56.533Z,61.80
2022-11-18T15:56:24.459Z,62.00
2022-11-18T15:58:57.324Z,61.70
2022-11-18T16:01:26.047Z,62.00
2022-11-18T16:03:52.970Z,62.30
2022-11-18T16:06:19.958Z,62.50
2022-11-18T16:08:46.663Z,62.20
2022-11-18T16:11:34.170Z,62.80
2022-11-18T16:14:05.069Z,62.20
2022-11-18T16:16:34.853Z,62.20
2022-11-18T16:19:04.466Z,62.30
2022-11-18T16:21:34.249Z,62.30
2022-11-18T16:24:02.709Z,62.30
2022-11-18T16:26:33.135Z,62.20
2022-11-18T16:29:00.554Z,62.20
2022-11-18T16:31:43.620Z,62.10
2022-11-18T16:34:16.502Z,62.20
2022-11-18T16:36:44.994Z,61.90
2022-11-18T16:39:12.970Z,61.90
2022-11-18T16:41:40.906Z,62.00
2022-11-18T16:44:10.111Z,62.00
2022-11-18T16:46:40.443Z,62.40
2022-11-18T16:49:11.791Z,62.60
2022-11-18T16:51:42.615Z,62.60
2022-11-18T16:54:15.962Z,62.60
2022-11-18T16:56:44.465Z,62.70
2022-11-18T16:59:22.958Z,62.60
2022-11-18T17:01:50.540Z,62.80
2022-11-18T17:04:18.730Z,62.90
2022-11-18T17:06:49.197Z,63.10
2022-11-18T17:09:24.478Z,63.40
2022-11-18T17:11:55.560Z,63.40
2022-11-18T17:14:23.868Z,64.30
2022-11-18T17:16:52.013Z,63.90
2022-11-18T17:19:21.211Z,63.90
2022-11-18T17:21:48.474Z,64.00
2022-11-18T17:24:18.398Z,64.00
2022-11-18T17:26:46.297Z,64.10
2022-11-18T17:29:13.388Z,63.80
2022-11-18T17:31:41.176Z,63.70
2022-11-18T17:34:12.036Z,64.00
2022-11-18T17:36:39.195Z,64.10
2022-11-18T17:39:06.121Z,64.10
2022-11-18T17:41:54.638Z,64.10
2022-11-18T17:44:21.651Z,64.20
2022-11-18T17:46:48.831Z,64.10
2022-11-18T17:49:18.141Z,64.10
2022-11-18T17:51:46.252Z,64.30
2022-11-18T17:54:17.868Z,64.50
2022-11-18T17:56:45.317Z,64.50
2022-11-18T17:59:14.061Z,64.40
2022-11-18T18:01:40.774Z,64.40
2022-11-18T18:04:08.599Z,64.80
2022-11-18T18:06:35.643Z,64.10
2022-11-18T18:09:05.919Z,64.00
2022-11-18T18:11:32.627Z,63.80
2022-11-18T18:14:15.846Z,63.70
2022-11-18T18:16:53.785Z,63.60
2022-11-18T18:19:29.172Z,63.30
2022-11-18T18:22:00.542Z,63.80
2022-11-18T18:24:27.221Z,63.60
2022-11-18T18:26:54.065Z,62.90
2022-11-18T18:29:20.766Z,62.70
2022-11-18T18:31:50.136Z,62.60
2022-11-18T18:34:17.741Z,62.40
2022-11-18T18:36:44.631Z,62.40
2022-11-18T18:39:11.358Z,62.30
2022-11-18T18:41:38.546Z,62.00
2022-11-18T18:44:05.667Z,61.60
2022-11-18T18:46:41.105Z,61.60
2022-11-18T18:49:16.616Z,61.40
2022-11-18T18:51:50.434Z,60.90
2022-11-18T18:54:20.679Z,60.30
2022-11-18T18:56:47.606Z,60.00
2022-11-18T18:59:14.468Z,60.00
2022-11-18T19:01:41.311Z,60.60
2022-11-18T19:04:14.146Z,60.00
2022-11-18T19:09:28.365Z,59.40
2022-11-18T19:12:14.232Z,58.90
2022-11-18T19:14:41.114Z,58.80
2022-11-18T19:17:12.635Z,58.80
2022-11-18T19:20:00.305Z,58.90
2022-11-18T19:22:30.844Z,58.20
2022-11-18T19:24:58.291Z,58.40
2022-11-18T19:27:25.500Z,57.90
2022-11-18T19:29:52.364Z,58.50
2022-11-18T19:32:19.209Z,57.90
2022-11-18T19:34:45.862Z,58.30
2022-11-18T19:37:12.651Z,57.10
2022-11-18T19:39:39.352Z,57.70
2022-11-18T19:42:06.309Z,57.00
2022-11-18T19:44:33.123Z,57.10
2022-11-18T19:46:59.807Z,58.60
2022-11-18T19:49:26.577Z,56.60
2022-11-18T19:51:53.244Z,56.70
2022-11-18T19:54:20.007Z,55.80
2022-11-18T19:56:46.748Z,56.10
2022-11-18T19:59:13.629Z,56.20
2022-11-18T20:01:40.438Z,56.50
2022-11-18T20:04:07.507Z,55.70
2022-11-18T20:06:35.572Z,56.90
2022-11-18T20:09:07.169Z,55.60
2022-11-18T20:11:34.272Z,54.90
2022-11-18T20:14:01.140Z,55.40
2022-11-18T20:16:28.176Z,54.90
2022-11-18T20:19:06.571Z,54.90
2022-11-18T20:21:36.126Z,54.80
2022-11-18T20:24:04.624Z,54.30
2022-11-18T20:26:33.839Z,55.50
2022-11-18T20:29:01.143Z,54.30
2022-11-18T20:31:28.610Z,54.00
2022-11-18T20:33:56.643Z,54.30
2022-11-18T20:36:26.030Z,54.90
2022-11-18T20:38:58.385Z,55.40
2022-11-18T20:41:25.757Z,54.70
2022-11-18T20:43:52.564Z,53.50
2022-11-18T20:46:21.708Z,52.80
2022-11-18T20:48:49.469Z,53.80
2022-11-18T20:51:24.654Z,52.40
2022-11-18T20:53:52.964Z,53.00
2022-11-18T20:56:22.905Z,52.90
2022-11-18T20:58:50.135Z,53.60
2022-11-18T21:01:18.255Z,53.10
2022-11-18T21:03:54.174Z,51.30
2022-11-18T21:06:22.786Z,53.60
2022-11-18T21:08:53.989Z,53.00
2022-11-18T21:11:20.654Z,59.80
2022-11-18T21:14:06.008Z,54.80
2022-11-18T21:16:32.669Z,54.60
2022-11-18T21:18:59.557Z,53.80
2022-11-18T21:21:44.427Z,53.70
2022-11-18T21:24:19.974Z,52.40
2022-11-18T21:26:48.653Z,51.70
2022-11-18T21:29:16.147Z,53.00
2022-11-18T21:31:43.521Z,62.40
2022-11-18T21:34:11.007Z,55.90
2022-11-18T21:36:43.908Z,53.20
2022-11-18T21:39:12.901Z,52.50
2022-11-18T21:41:40.143Z,52.80
2022-11-18T21:44:12.131Z,52.70
2022-11-18T21:46:40.888Z,50.70
2022-11-18T21:49:08.347Z,51.70
2022-11-18T21:51:35.608Z,52.00
2022-11-18T21:54:03.322Z,54.40
2022-11-18T21:56:31.273Z,52.60
2022-11-18T21:59:00.321Z,52.20
2022-11-18T22:01:32.841Z,50.00
2022-11-18T22:04:02.017Z,50.10
2022-11-18T22:06:31.518Z,52.10
2022-11-18T22:08:58.641Z,51.80
2022-11-18T22:11:25.977Z,54.50
2022-11-18T22:13:53.327Z,51.90
2022-11-18T22:16:22.455Z,52.10
2022-11-18T22:18:56.608Z,53.00
2022-11-18T22:21:28.719Z,52.80
2022-11-18T22:24:00.074Z,54.90
2022-11-18T22:26:27.571Z,53.00
2022-11-18T22:28:56.843Z,54.00
2022-11-18T22:31:25.515Z,53.20
2022-11-18T22:33:55.566Z,51.10
2022-11-18T22:36:24.305Z,64.90
2022-11-18T22:38:51.235Z,53.40
2022-11-18T22:41:38.624Z,51.90
2022-11-18T22:44:08.027Z,51.90
2022-11-18T22:46:35.868Z,49.90
2022-11-18T22:49:02.728Z,49.70
2022-11-18T22:51:29.407Z,50.00
2022-11-18T22:54:15.798Z,50.30
2022-11-18T22:56:42.831Z,49.80
2022-11-18T22:59:11.811Z,52.90
2022-11-18T23:01:38.745Z,49.30
2022-11-18T23:04:05.574Z,48.40
2022-11-18T23:06:32.205Z,48.70
2022-11-18T23:08:58.884Z,49.90
2022-11-18T23:11:44.360Z,48.70
2022-11-18T23:14:11.172Z,49.10
2022-11-18T23:16:42.577Z,48.20
2022-11-18T23:19:12.120Z,48.30
2022-11-18T23:21:38.902Z,47.40
2022-11-18T23:29:00.361Z,46.90
2022-11-18T23:31:30.253Z,48.10
2022-11-18T23:34:00.498Z,46.10
2022-11-18T23:36:27.965Z,47.70
2022-11-18T23:38:57.072Z,48.00
2022-11-18T23:41:24.059Z,47.80
2022-11-18T23:43:54.171Z,49.10
2022-11-18T23:46:21.848Z,48.60
2022-11-18T23:48:48.712Z,49.00
2022-11-18T23:51:26.064Z,49.90
2022-11-18T23:53:57.322Z,48.50
2022-11-18T23:56:26.111Z,49.70
2022-11-18T23:58:54.745Z,49.90
